Time;durP1;ratioP1;P1;durP2;ratioP2;P2;SDS_P1;SDS_P2;PMS_P1;PMS_P2;Temp;Humidity;BMP_temperature;BMP_pressure;BME280_temperature;BME280_humidity;BME280_pressure;Samples;Min_cycle;Max_cycle;Signal;HPM_P1;HPM_P2
2021/03/17 00:01:48;;;;;;;2.75;2.10;;;3.40;99.90;;;;;;5024788;28;20221;-73
2021/03/17 00:04:15;;;;;;;2.30;2.10;;;3.30;99.90;;;;;;5024710;28;20339;-74
2021/03/17 00:06:41;;;;;;;3.88;2.40;;;3.30;99.90;;;;;;5028528;28;20198;-74
2021/03/17 00:09:07;;;;;;;3.35;2.30;;;3.30;99.90;;;;;;5027781;28;20256;-75
2021/03/17 00:11:33;;;;;;;3.05;2.30;;;3.20;99.90;;;;;;5028203;28;20232;-75
2021/03/17 00:14:00;;;;;;;2.80;2.60;;;3.30;99.90;;;;;;5028870;28;20263;-74
2021/03/17 00:16:26;;;;;;;2.75;2.50;;;3.30;99.90;;;;;;5028625;28;20221;-73
2021/03/17 00:18:55;;;;;;;2.20;1.92;;;3.20;99.90;;;;;;5029546;28;20204;-74
2021/03/17 00:21:22;;;;;;;3.33;3.03;;;3.10;99.90;;;;;;5030306;28;20228;-74
2021/03/17 00:23:48;;;;;;;2.58;2.38;;;3.20;99.90;;;;;;5032054;28;20209;-74
2021/03/17 00:26:15;;;;;;;2.83;2.22;;;3.30;99.90;;;;;;5032642;28;20593;-75
2021/03/17 00:28:41;;;;;;;2.63;2.30;;;3.30;99.90;;;;;;5031718;28;20202;-74
2021/03/17 00:31:07;;;;;;;2.70;2.40;;;3.30;99.90;;;;;;5032424;28;20616;-73
2021/03/17 00:33:33;;;;;;;3.53;2.00;;;3.30;99.90;;;;;;5032248;28;20206;-74
2021/03/17 00:36:00;;;;;;;2.92;2.63;;;3.30;99.90;;;;;;5032321;28;20384;-73
2021/03/17 00:38:26;;;;;;;3.53;2.30;;;3.30;99.90;;;;;;5031677;28;20293;-73
2021/03/17 00:40:53;;;;;;;3.80;2.58;;;3.20;99.90;;;;;;5031573;28;20222;-73
2021/03/17 00:43:19;;;;;;;2.25;2.05;;;3.20;99.90;;;;;;5032552;28;20216;-73
2021/03/17 00:45:45;;;;;;;2.80;2.33;;;3.30;99.90;;;;;;5032729;28;20918;-74
2021/03/17 00:48:11;;;;;;;2.45;2.10;;;3.30;99.90;;;;;;5032590;28;20201;-73
2021/03/17 00:50:38;;;;;;;2.65;2.42;;;3.30;99.90;;;;;;5032365;28;20857;-74
2021/03/17 00:53:05;;;;;;;3.63;2.70;;;3.20;99.90;;;;;;5033168;28;20205;-74
2021/03/17 00:55:31;;;;;;;2.78;2.47;;;3.20;99.90;;;;;;5032639;28;20222;-74
2021/03/17 00:57:57;;;;;;;4.20;3.15;;;3.20;99.90;;;;;;5036462;28;20202;-73
2021/03/17 01:00:24;;;;;;;2.72;2.30;;;3.20;99.90;;;;;;5045247;28;20210;-73
2021/03/17 01:02:51;;;;;;;2.75;2.55;;;3.20;99.90;;;;;;5040904;28;20258;-75
2021/03/17 01:05:17;;;;;;;2.40;2.20;;;3.20;99.90;;;;;;5036462;28;20194;-75
2021/03/17 01:07:44;;;;;;;2.80;2.55;;;3.30;99.90;;;;;;5031871;28;20224;-74
2021/03/17 01:10:15;;;;;;;2.70;2.28;;;3.30;99.90;;;;;;5030831;28;20202;-74
2021/03/17 01:12:41;;;;;;;2.60;2.40;;;3.20;99.90;;;;;;5031627;28;20206;-75
2021/03/17 01:15:10;;;;;;;2.83;2.63;;;3.20;99.90;;;;;;5031647;28;20218;-74
2021/03/17 01:17:36;;;;;;;2.97;2.40;;;3.30;99.90;;;;;;5028071;28;20216;-73
2021/03/17 01:20:04;;;;;;;2.80;2.45;;;3.30;99.90;;;;;;5028949;28;20673;-73
2021/03/17 01:22:30;;;;;;;2.80;2.50;;;3.30;99.90;;;;;;5030929;28;20226;-74
2021/03/17 01:24:56;;;;;;;2.50;2.30;;;3.30;99.90;;;;;;5031271;28;20352;-74
2021/03/17 01:27:23;;;;;;;2.90;2.60;;;3.40;99.90;;;;;;5030956;28;20206;-73
2021/03/17 01:29:50;;;;;;;2.65;2.45;;;3.30;99.90;;;;;;5030046;28;20209;-72
2021/03/17 01:32:16;;;;;;;3.30;2.92;;;3.30;99.90;;;;;;5030434;28;20229;-72
2021/03/17 01:34:42;;;;;;;3.15;2.45;;;3.20;99.90;;;;;;5031217;28;20620;-73
2021/03/17 01:37:08;;;;;;;2.85;2.55;;;3.20;99.90;;;;;;5031038;28;20695;-73
2021/03/17 01:39:35;;;;;;;3.10;2.85;;;3.20;99.90;;;;;;5029826;28;20700;-72
2021/03/17 01:42:01;;;;;;;3.88;3.20;;;3.20;99.90;;;;;;5030918;28;20221;-73
2021/03/17 01:44:28;;;;;;;3.05;2.70;;;3.20;99.90;;;;;;5030241;28;20250;-73
2021/03/17 01:46:54;;;;;;;3.25;2.95;;;3.20;99.90;;;;;;5030826;28;20216;-73
2021/03/17 01:49:21;;;;;;;2.70;2.50;;;3.20;99.90;;;;;;5029915;28;20236;-72
2021/03/17 01:51:47;;;;;;;4.45;2.60;;;3.20;99.90;;;;;;5030410;28;20225;-73
2021/03/17 01:54:13;;;;;;;3.40;2.50;;;3.20;99.90;;;;;;5030557;28;20212;-74
2021/03/17 01:56:40;;;;;;;2.97;2.67;;;3.20;99.90;;;;;;5029873;28;20248;-73
2021/03/17 01:59:06;;;;;;;3.35;2.70;;;3.10;99.90;;;;;;5030080;28;20205;-74
2021/03/17 02:01:33;;;;;;;2.97;2.67;;;3.20;99.90;;;;;;5030012;28;20221;-73
2021/03/17 02:03:59;;;;;;;3.00;2.67;;;3.10;99.90;;;;;;5030300;28;20202;-74
2021/03/17 02:06:25;;;;;;;3.05;2.75;;;3.10;99.90;;;;;;5029499;28;20197;-74
2021/03/17 02:08:52;;;;;;;3.38;3.05;;;3.20;99.90;;;;;;5029702;28;20218;-74
2021/03/17 02:11:18;;;;;;;3.08;2.70;;;3.20;99.90;;;;;;5029829;28;20248;-72
2021/03/17 02:13:58;;;;;;;3.25;2.70;;;3.20;99.90;;;;;;5029866;28;20203;-74
2021/03/17 02:16:26;;;;;;;3.67;2.97;;;3.20;99.90;;;;;;5029603;28;20699;-73
2021/03/17 02:19:23;;;;;;;3.42;3.13;;;3.20;99.90;;;;;;5029546;28;20209;-73
2021/03/17 02:22:20;;;;;;;3.28;2.80;;;3.30;99.90;;;;;;5029205;28;20225;-73
2021/03/17 02:24:52;;;;;;;3.38;2.70;;;3.30;99.90;;;;;;5029720;28;20201;-73
2021/03/17 02:28:08;;;;;;;3.20;2.90;;;3.20;99.90;;;;;;5029559;28;20205;-73
2021/03/17 02:31:08;;;;;;;4.07;3.40;;;3.20;99.90;;;;;;4967184;28;20207;-73
2021/03/17 02:33:49;;;;;;;3.40;3.00;;;3.10;99.90;;;;;;5029358;28;20203;-73
2021/03/17 02:36:21;;;;;;;3.28;2.97;;;3.10;99.90;;;;;;5029735;28;20841;-73
2021/03/17 02:38:52;;;;;;;3.10;2.70;;;3.10;99.90;;;;;;5029101;28;20619;-75
2021/03/17 02:41:24;;;;;;;4.13;2.80;;;3.20;99.90;;;;;;5028966;28;20280;-73
2021/03/17 02:43:55;;;;;;;3.72;3.20;;;3.10;99.90;;;;;;5029214;28;20202;-73
2021/03/17 02:46:25;;;;;;;3.00;2.70;;;3.10;99.90;;;;;;5029328;28;20221;-73
2021/03/17 02:48:58;;;;;;;3.28;2.97;;;3.10;99.90;;;;;;5028951;28;20582;-73
2021/03/17 02:51:32;;;;;;;3.45;3.15;;;3.00;99.90;;;;;;5028686;28;20318;-73
2021/03/17 02:54:01;;;;;;;3.35;3.03;;;3.00;99.90;;;;;;5029285;28;20209;-73
2021/03/17 02:56:30;;;;;;;4.07;3.03;;;3.10;99.90;;;;;;5029021;28;20271;-73
2021/03/17 02:58:59;;;;;;;3.08;2.78;;;3.00;99.90;;;;;;5028662;28;20673;-73
2021/03/17 03:01:26;;;;;;;4.07;3.35;;;3.00;99.90;;;;;;5028344;28;20596;-73
2021/03/17 03:03:53;;;;;;;3.58;3.05;;;3.00;99.90;;;;;;5028955;28;20202;-73
2021/03/17 03:06:19;;;;;;;3.25;2.95;;;3.00;99.90;;;;;;5028862;28;20198;-73
2021/03/17 03:08:46;;;;;;;3.92;2.90;;;3.00;99.90;;;;;;5028217;28;20219;-73
2021/03/17 03:11:15;;;;;;;3.72;2.90;;;2.90;99.90;;;;;;5028637;28;20229;-73
2021/03/17 03:13:42;;;;;;;3.15;2.85;;;2.90;99.90;;;;;;5028751;28;20205;-73
2021/03/17 03:16:09;;;;;;;3.78;3.30;;;2.90;99.90;;;;;;5028749;28;20724;-74
2021/03/17 03:18:38;;;;;;;3.65;3.28;;;2.80;99.90;;;;;;5028086;28;20210;-73
2021/03/17 03:21:07;;;;;;;4.05;3.05;;;2.80;99.90;;;;;;5028451;28;20233;-72
2021/03/17 03:23:35;;;;;;;3.38;3.05;;;2.80;99.90;;;;;;5028765;28;20272;-73
2021/03/17 03:26:02;;;;;;;3.47;3.17;;;2.80;99.90;;;;;;5028866;28;20209;-73
2021/03/17 03:28:31;;;;;;;3.67;3.00;;;2.80;99.90;;;;;;5028353;28;20206;-72
2021/03/17 03:30:57;;;;;;;3.50;3.20;;;2.80;99.90;;;;;;5028280;28;20221;-73
2021/03/17 03:33:23;;;;;;;3.55;3.25;;;2.90;99.90;;;;;;5028458;28;20229;-72
2021/03/17 03:35:50;;;;;;;3.65;3.30;;;2.80;99.90;;;;;;5028761;28;20225;-73
2021/03/17 03:38:19;;;;;;;4.20;3.30;;;2.80;99.90;;;;;;5028664;28;20206;-73
2021/03/17 03:40:46;;;;;;;4.00;3.13;;;2.80;99.90;;;;;;5007815;28;20218;-73
2021/03/17 03:43:12;;;;;;;3.92;3.40;;;2.80;99.90;;;;;;5008651;28;20217;-73
2021/03/17 03:45:40;;;;;;;3.72;3.22;;;2.80;99.90;;;;;;5008592;28;20233;-74
2021/03/17 03:48:07;;;;;;;3.50;3.20;;;2.80;99.90;;;;;;5009075;28;20206;-73
2021/03/17 03:50:36;;;;;;;3.53;3.20;;;2.80;99.90;;;;;;5007670;28;20210;-74
2021/03/17 03:53:10;;;;;;;4.60;4.00;;;2.90;99.90;;;;;;5008648;28;20207;-73
2021/03/17 03:55:46;;;;;;;3.72;3.13;;;2.90;99.90;;;;;;5008494;28;20660;-73
2021/03/17 03:58:15;;;;;;;3.60;3.05;;;2.90;99.90;;;;;;5008815;28;20228;-72
2021/03/17 04:00:42;;;;;;;3.60;3.30;;;2.80;99.90;;;;;;5026914;28;20226;-72
2021/03/17 04:03:12;;;;;;;4.10;3.25;;;2.80;99.90;;;;;;5027836;28;20225;-73
2021/03/17 04:05:40;;;;;;;4.30;3.60;;;2.80;99.90;;;;;;5028074;28;20197;-74
2021/03/17 04:08:10;;;;;;;8.15;3.90;;;2.90;99.90;;;;;;5028275;28;20256;-74
2021/03/17 04:10:38;;;;;;;4.43;4.03;;;2.90;99.90;;;;;;5027503;28;20237;-73
2021/03/17 04:13:07;;;;;;;4.68;4.00;;;2.90;99.90;;;;;;5028260;28;20271;-73
2021/03/17 04:15:35;;;;;;;4.40;3.58;;;2.80;99.90;;;;;;5027887;28;20217;-73
2021/03/17 04:18:04;;;;;;;3.97;3.50;;;2.80;99.90;;;;;;5028403;28;20260;-73
2021/03/17 04:20:34;;;;;;;4.20;3.80;;;2.80;99.90;;;;;;5027188;28;20202;-73
2021/03/17 04:23:02;;;;;;;4.65;4.00;;;2.80;99.90;;;;;;5028405;28;20209;-73
2021/03/17 04:25:32;;;;;;;4.70;4.10;;;2.90;99.90;;;;;;5027683;28;20202;-73
2021/03/17 04:28:00;;;;;;;4.68;4.25;;;2.90;99.90;;;;;;5027869;28;20210;-73
2021/03/17 04:30:27;;;;;;;4.80;3.97;;;2.80;99.90;;;;;;5027055;28;20737;-73
2021/03/17 04:32:54;;;;;;;5.25;4.57;;;2.90;99.90;;;;;;5028336;28;20205;-73
2021/03/17 04:35:21;;;;;;;4.80;4.10;;;2.90;99.90;;;;;;5027913;28;20750;-73
2021/03/17 04:37:50;;;;;;;5.15;4.47;;;2.90;99.90;;;;;;5028104;28;20201;-73
2021/03/17 04:40:18;;;;;;;4.55;4.15;;;2.90;99.90;;;;;;5027087;28;20669;-73
2021/03/17 04:42:45;;;;;;;5.53;4.68;;;2.90;99.90;;;;;;5028227;28;20681;-72
2021/03/17 04:45:14;;;;;;;5.15;4.65;;;2.90;99.90;;;;;;5028409;28;20328;-72
2021/03/17 04:47:41;;;;;;;5.30;4.80;;;2.90;99.90;;;;;;5027771;28;20221;-74
2021/03/17 04:50:10;;;;;;;5.38;4.82;;;3.00;99.90;;;;;;5027344;28;20209;-74
2021/03/17 04:52:39;;;;;;;7.00;5.22;;;3.00;99.90;;;;;;5029667;28;20575;-73
2021/03/17 04:55:07;;;;;;;6.43;5.20;;;2.90;99.90;;;;;;5031457;28;20206;-73
2021/03/17 04:57:35;;;;;;;6.60;5.55;;;2.90;99.90;;;;;;5028919;28;20206;-72
2021/03/17 05:00:04;;;;;;;6.00;5.03;;;2.90;99.90;;;;;;5031355;28;20727;-73
2021/03/17 05:02:31;;;;;;;6.57;5.55;;;2.90;99.90;;;;;;5027063;28;20635;-72
2021/03/17 05:04:58;;;;;;;6.55;5.45;;;2.90;99.90;;;;;;5030899;28;20202;-71
2021/03/17 05:07:26;;;;;;;7.80;6.68;;;2.90;99.90;;;;;;5030774;28;20228;-73
2021/03/17 05:09:53;;;;;;;5.95;5.32;;;2.90;99.90;;;;;;5030000;28;20202;-71
2021/03/17 05:12:19;;;;;;;7.18;6.13;;;2.90;99.90;;;;;;5031323;28;20631;-72
2021/03/17 05:14:46;;;;;;;6.90;5.65;;;2.90;99.90;;;;;;5032259;28;20212;-71
2021/03/17 05:17:14;;;;;;;7.78;6.05;;;2.90;99.90;;;;;;5030906;28;20283;-71
2021/03/17 05:19:43;;;;;;;6.90;6.20;;;2.90;99.90;;;;;;5029692;28;20665;-72
2021/03/17 05:22:10;;;;;;;7.93;6.70;;;2.90;99.90;;;;;;5030363;28;20253;-73
2021/03/17 05:24:37;;;;;;;6.70;6.00;;;2.90;99.90;;;;;;5030472;28;20241;-72
2021/03/17 05:27:09;;;;;;;6.25;5.00;;;2.90;99.90;;;;;;5029501;28;20252;-71
2021/03/17 05:29:39;;;;;;;9.20;8.30;;;3.00;99.90;;;;;;5026027;28;20457;-70
2021/03/17 05:32:08;;;;;;;7.50;6.40;;;3.00;99.90;;;;;;5035576;28;20233;-70
2021/03/17 05:34:35;;;;;;;8.73;6.95;;;3.00;99.90;;;;;;5050067;28;20212;-70
2021/03/17 05:37:04;;;;;;;7.13;6.43;;;3.20;99.90;;;;;;5050706;28;20635;-69
2021/03/17 05:39:30;;;;;;;7.78;7.00;;;3.20;99.90;;;;;;5040800;28;20216;-72
2021/03/17 05:41:56;;;;;;;7.95;7.15;;;3.20;99.90;;;;;;5030547;28;20229;-71
2021/03/17 05:44:23;;;;;;;7.60;6.80;;;3.30;99.90;;;;;;5030344;28;20197;-71
2021/03/17 05:46:50;;;;;;;9.25;7.57;;;3.30;99.90;;;;;;5031032;28;20209;-70
2021/03/17 05:49:20;;;;;;;8.38;7.30;;;3.20;99.90;;;;;;5030688;28;20198;-71
2021/03/17 05:51:47;;;;;;;9.57;8.13;;;3.30;99.90;;;;;;5035816;28;20226;-72
2021/03/17 05:54:14;;;;;;;9.43;7.50;;;3.30;99.90;;;;;;5056001;28;20196;-73
2021/03/17 05:56:41;;;;;;;9.45;8.45;;;3.20;99.90;;;;;;5056197;28;20226;-72
2021/03/17 05:59:08;;;;;;;8.75;7.85;;;3.20;99.90;;;;;;5042005;28;20209;-71
2021/03/17 06:01:35;;;;;;;11.13;8.48;;;3.20;99.90;;;;;;5030059;28;20222;-70
2021/03/17 06:04:03;;;;;;;8.77;7.03;;;3.20;99.90;;;;;;5029663;28;20217;-73
2021/03/17 06:06:30;;;;;;;11.40;9.10;;;3.20;99.90;;;;;;5030647;28;20213;-71
2021/03/17 06:09:00;;;;;;;12.02;8.73;;;3.20;99.90;;;;;;5030821;28;20201;-71
2021/03/17 06:11:28;;;;;;;12.30;10.15;;;3.20;99.90;;;;;;5030815;28;20222;-70
2021/03/17 06:13:57;;;;;;;11.13;8.60;;;3.20;99.90;;;;;;5030956;28;20236;-70
2021/03/17 06:16:24;;;;;;;10.63;9.35;;;3.20;99.90;;;;;;5030414;28;20708;-71
2021/03/17 06:18:52;;;;;;;13.65;9.88;;;3.20;99.90;;;;;;5030503;28;20202;-70
2021/03/17 06:21:20;;;;;;;11.65;9.93;;;3.20;99.90;;;;;;5030772;28;20245;-70
2021/03/17 06:23:47;;;;;;;11.13;9.27;;;3.20;99.90;;;;;;5030438;28;20573;-72
2021/03/17 06:26:14;;;;;;;12.50;10.05;;;3.30;99.90;;;;;;5030926;28;20209;-70
2021/03/17 06:28:42;;;;;;;13.50;10.35;;;3.40;99.90;;;;;;5029627;28;20206;-70
2021/03/17 06:31:10;;;;;;;11.52;10.30;;;3.40;99.90;;;;;;5031279;28;20229;-70
2021/03/17 06:33:36;;;;;;;12.60;10.52;;;3.30;99.90;;;;;;5030329;28;21111;-70
2021/03/17 06:36:13;;;;;;;14.95;10.32;;;3.30;99.90;;;;;;5030627;28;20319;-70
2021/03/17 06:38:40;;;;;;;14.57;11.13;;;3.20;99.90;;;;;;5029466;28;20283;-70
2021/03/17 06:41:06;;;;;;;12.68;10.18;;;3.20;99.90;;;;;;5030242;28;20260;-71
2021/03/17 06:43:37;;;;;;;11.75;9.25;;;3.20;99.90;;;;;;5029849;28;20263;-70
2021/03/17 06:46:06;;;;;;;11.77;9.00;;;3.20;99.90;;;;;;5029095;28;20210;-70
2021/03/17 06:48:32;;;;;;;11.40;9.35;;;3.20;99.90;;;;;;5028776;28;20210;-71
2021/03/17 06:51:17;;;;;;;12.50;9.50;;;3.30;99.90;;;;;;5028906;28;20222;-70
2021/03/17 06:53:45;;;;;;;17.00;10.10;;;3.30;99.90;;;;;;5028834;28;20209;-71
2021/03/17 06:56:19;;;;;;;11.85;9.77;;;3.30;99.90;;;;;;5028919;28;20225;-70
2021/03/17 06:58:47;;;;;;;11.43;9.43;;;3.20;99.90;;;;;;5028456;28;20695;-70
2021/03/17 07:01:28;;;;;;;10.80;8.98;;;3.20;99.90;;;;;;5028479;28;20224;-69
2021/03/17 07:03:56;;;;;;;12.35;9.82;;;3.20;99.90;;;;;;5028674;28;20221;-70
2021/03/17 07:06:22;;;;;;;9.73;8.68;;;3.30;99.90;;;;;;5028290;28;20291;-70
2021/03/17 07:08:48;;;;;;;11.07;9.05;;;3.30;99.90;;;;;;5027673;28;20208;-70
2021/03/17 07:11:22;;;;;;;9.70;7.65;;;3.30;99.90;;;;;;5028388;28;20226;-69
2021/03/17 07:13:54;;;;;;;9.25;8.05;;;3.20;99.90;;;;;;5028655;28;20201;-69
2021/03/17 07:16:33;;;;;;;9.30;8.27;;;3.20;99.90;;;;;;5027797;28;20222;-70
2021/03/17 07:18:59;;;;;;;9.80;8.27;;;3.30;99.90;;;;;;5028299;28;20236;-70
2021/03/17 07:21:34;;;;;;;9.10;7.88;;;3.30;99.90;;;;;;5027948;28;20229;-70
2021/03/17 07:24:01;;;;;;;10.93;8.73;;;3.30;99.90;;;;;;5028446;28;20212;-70
2021/03/17 07:26:28;;;;;;;10.60;8.57;;;3.30;99.90;;;;;;5028071;28;20246;-70
2021/03/17 07:29:11;;;;;;;11.82;9.35;;;3.30;99.90;;;;;;5027954;28;20206;-70
2021/03/17 07:31:46;;;;;;;9.90;8.35;;;3.50;99.90;;;;;;5027907;28;20229;-70
2021/03/17 07:34:21;;;;;;;9.38;7.75;;;3.60;99.90;;;;;;5028267;28;20232;-72
2021/03/17 07:36:54;;;;;;;13.95;8.65;;;3.70;99.90;;;;;;5028483;28;20221;-71
2021/03/17 07:39:23;;;;;;;10.30;8.10;;;3.70;99.90;;;;;;5026770;28;20216;-69
2021/03/17 07:41:52;;;;;;;12.00;8.20;;;3.80;99.90;;;;;;5028110;28;20233;-70
2021/03/17 07:44:20;;;;;;;9.23;7.85;;;3.80;99.90;;;;;;5027529;28;20206;-69
2021/03/17 07:46:50;;;;;;;11.15;7.97;;;3.90;99.90;;;;;;5028225;28;20209;-70
2021/03/17 07:49:17;;;;;;;10.20;8.38;;;3.90;99.90;;;;;;5027342;28;20293;-70
2021/03/17 07:51:51;;;;;;;10.80;8.18;;;4.00;99.90;;;;;;5028935;28;20226;-71
2021/03/17 07:54:31;;;;;;;12.20;8.38;;;4.00;99.90;;;;;;5027999;28;20206;-71
2021/03/17 07:56:58;;;;;;;12.93;8.90;;;4.00;99.90;;;;;;5027730;28;20226;-71
2021/03/17 07:59:25;;;;;;;9.80;7.43;;;4.10;99.90;;;;;;5026988;28;20275;-71
2021/03/17 08:01:54;;;;;;;10.05;7.80;;;4.10;99.90;;;;;;5027895;28;20225;-71
2021/03/17 08:04:24;;;;;;;8.60;7.20;;;4.10;99.90;;;;;;5027752;28;20248;-71
2021/03/17 08:06:51;;;;;;;9.95;7.60;;;4.10;99.90;;;;;;5028006;28;20206;-71
2021/03/17 08:09:17;;;;;;;10.57;7.60;;;4.20;99.90;;;;;;5027075;28;20669;-71
2021/03/17 08:11:44;;;;;;;13.95;7.82;;;4.40;99.90;;;;;;5027968;28;20230;-71
2021/03/17 08:14:14;;;;;;;10.15;8.02;;;4.50;99.90;;;;;;5028253;28;20201;-70
2021/03/17 08:16:40;;;;;;;9.57;7.20;;;4.80;99.90;;;;;;5027744;28;20252;-71
2021/03/17 08:19:23;;;;;;;9.07;7.05;;;5.20;99.90;;;;;;5027399;28;20252;-71
2021/03/17 08:21:55;;;;;;;9.50;6.50;;;5.50;99.90;;;;;;5028569;28;20225;-71
2021/03/17 08:24:43;;;;;;;8.90;7.05;;;5.80;99.90;;;;;;5027954;28;20202;-72
2021/03/17 08:27:21;;;;;;;12.57;6.88;;;5.90;99.90;;;;;;5031668;28;20583;-70
2021/03/17 08:29:50;;;;;;;10.80;6.57;;;5.90;99.90;;;;;;5031285;28;20205;-71
2021/03/17 08:32:18;;;;;;;8.80;6.70;;;5.80;99.90;;;;;;5031577;28;20234;-71
2021/03/17 08:34:56;;;;;;;11.60;7.72;;;5.90;99.90;;;;;;5032091;28;20206;-70
2021/03/17 08:37:50;;;;;;;9.93;6.70;;;6.00;99.90;;;;;;5032071;28;20229;-71
2021/03/17 08:40:46;;;;;;;7.60;6.80;;;6.20;99.90;;;;;;5030858;28;20206;-71
2021/03/17 08:43:42;;;;;;;6.95;5.90;;;6.40;99.90;;;;;;5031961;28;20210;-70
2021/03/17 08:46:09;;;;;;;8.25;4.80;;;6.50;99.90;;;;;;5031573;28;20201;-70
2021/03/17 08:49:01;;;;;;;8.90;7.25;;;6.50;99.90;;;;;;5030547;28;20932;-71
2021/03/17 08:52:06;;;;;;;13.93;10.57;;;6.80;99.90;;;;;;5030651;28;20221;-72
2021/03/17 08:55:11;;;;;;;5.88;4.80;;;7.30;99.90;;;;;;5031559;28;20201;-71
2021/03/17 08:57:52;;;;;;;6.65;4.32;;;7.60;99.90;;;;;;5031033;28;20226;-70
2021/03/17 09:00:44;;;;;;;6.63;4.90;;;7.80;99.90;;;;;;5030515;28;20209;-72
2021/03/17 09:03:55;;;;;;;6.80;5.03;;;8.60;99.90;;;;;;5031588;28;20673;-71
2021/03/17 09:06:25;;;;;;;7.18;4.38;;;10.40;99.90;;;;;;5033698;28;20198;-71
2021/03/17 09:09:04;;;;;;;4.43;3.95;;;12.10;99.30;;;;;;5032684;28;20205;-72
2021/03/17 09:11:51;;;;;;;4.88;4.38;;;13.80;97.30;;;;;;5033478;28;20275;-71
2021/03/17 09:14:23;;;;;;;7.03;5.10;;;15.10;94.30;;;;;;5033569;28;20626;-72
2021/03/17 09:17:13;;;;;;;5.25;4.65;;;14.20;93.30;;;;;;5034480;28;20233;-72
2021/03/17 09:20:08;;;;;;;5.32;4.13;;;14.80;93.20;;;;;;5032960;28;20220;-71
2021/03/17 09:22:38;;;;;;;7.55;4.72;;;16.40;90.50;;;;;;5020534;28;20256;-71
2021/03/17 09:25:20;;;;;;;5.00;4.53;;;17.40;90.10;;;;;;5034350;28;20216;-72
2021/03/17 09:27:50;;;;;;;3.63;3.13;;;18.50;83.50;;;;;;5034515;28;20456;-72
2021/03/17 09:30:18;;;;;;;2.50;2.30;;;19.30;78.90;;;;;;5032846;28;20856;-71
2021/03/17 09:32:45;;;;;;;6.47;5.40;;;19.90;72.80;;;;;;5030453;28;20452;-71
2021/03/17 09:35:13;;;;;;;4.20;3.77;;;19.40;72.90;;;;;;5034233;28;20456;-72
2021/03/17 09:37:39;;;;;;;3.77;3.23;;;18.60;72.70;;;;;;5033927;28;20492;-71
2021/03/17 09:40:07;;;;;;;3.43;3.13;;;18.30;73.40;;;;;;5034861;28;20464;-72
2021/03/17 09:42:37;;;;;;;3.70;3.30;;;19.00;73.20;;;;;;5034009;28;20484;-71
2021/03/17 09:45:07;;;;;;;4.10;3.23;;;17.60;76.30;;;;;;5033456;28;20463;-71
2021/03/17 09:47:33;;;;;;;3.30;3.00;;;16.90;75.30;;;;;;5033208;28;20464;-71
2021/03/17 09:50:00;;;;;;;3.93;3.50;;;16.30;76.50;;;;;;5032796;28;20468;-70
2021/03/17 09:52:28;;;;;;;4.07;3.67;;;14.90;77.70;;;;;;5032991;28;20485;-71
2021/03/17 09:54:54;;;;;;;3.90;3.40;;;13.70;83.20;;;;;;5033622;28;20460;-69
2021/03/17 09:57:24;;;;;;;3.03;2.80;;;13.10;83.30;;;;;;5033537;28;20488;-70
2021/03/17 09:59:50;;;;;;;5.90;4.90;;;13.50;84.00;;;;;;5033643;28;20202;-69
2021/03/17 10:02:21;;;;;;;3.83;3.17;;;15.50;81.60;;;;;;5032787;28;20229;-69
2021/03/17 10:04:49;;;;;;;3.70;3.40;;;16.60;77.30;;;;;;5032764;28;20827;-69
2021/03/17 10:07:17;;;;;;;3.53;3.23;;;17.60;76.10;;;;;;5032994;28;20470;-70
2021/03/17 10:09:44;;;;;;;4.50;3.03;;;18.40;75.40;;;;;;5032229;28;20476;-70
2021/03/17 10:12:12;;;;;;;3.27;2.80;;;18.30;72.90;;;;;;5032520;28;20863;-71
2021/03/17 10:14:43;;;;;;;2.90;2.70;;;17.30;71.70;;;;;;5032288;28;20464;-70
2021/03/17 10:17:09;;;;;;;3.60;2.90;;;15.40;72.00;;;;;;5032908;28;20488;-71
2021/03/17 10:19:38;;;;;;;3.10;2.70;;;13.90;75.50;;;;;;5031565;28;20549;-70
2021/03/17 10:22:05;;;;;;;3.58;2.80;;;13.00;79.50;;;;;;5032154;28;20665;-69
2021/03/17 10:24:37;;;;;;;3.00;2.70;;;12.70;79.20;;;;;;5031994;28;20601;-70
2021/03/17 10:27:05;;;;;;;3.65;3.25;;;12.40;82.80;;;;;;5033098;28;20198;-69
2021/03/17 10:29:32;;;;;;;3.05;2.80;;;12.30;83.80;;;;;;5031673;28;20209;-70
2021/03/17 10:31:59;;;;;;;3.15;2.85;;;12.70;79.50;;;;;;5032200;28;20229;-70
2021/03/17 10:34:27;;;;;;;4.40;3.40;;;13.20;82.50;;;;;;5031086;28;20578;-70
2021/03/17 10:36:56;;;;;;;3.77;3.30;;;13.90;79.60;;;;;;5031443;28;20225;-70
2021/03/17 10:39:30;;;;;;;6.15;2.90;;;13.90;78.10;;;;;;5030440;28;20967;-71
2021/03/17 10:41:56;;;;;;;2.90;2.40;;;13.30;79.90;;;;;;5030370;28;20233;-72
2021/03/17 10:44:25;;;;;;;4.13;3.05;;;12.70;80.70;;;;;;5030971;28;20217;-71
2021/03/17 10:47:04;;;;;;;3.22;2.70;;;12.90;85.20;;;;;;5031434;28;20225;-71
2021/03/17 10:49:32;;;;;;;3.43;3.13;;;13.90;82.00;;;;;;5028445;28;20695;-71
2021/03/17 10:51:59;;;;;;;2.25;2.03;;;14.00;79.20;;;;;;5030928;28;20484;-70
2021/03/17 10:54:35;;;;;;;2.00;1.70;;;13.60;76.70;;;;;;5030142;28;20573;-70
2021/03/17 10:57:02;;;;;;;2.90;2.70;;;12.90;77.80;;;;;;5029837;28;20225;-73
2021/03/17 10:59:30;;;;;;;3.25;2.20;;;12.50;80.60;;;;;;5029636;28;20211;-72
2021/03/17 11:02:16;;;;;;;3.65;2.50;;;12.50;80.30;;;;;;5031090;28;20287;-71
2021/03/17 11:05:21;;;;;;;3.45;2.45;;;12.10;81.20;;;;;;5029759;28;20238;-70
2021/03/17 11:07:57;;;;;;;2.85;2.60;;;11.50;80.10;;;;;;5014858;28;20206;-70
2021/03/17 11:10:51;;;;;;;2.95;2.35;;;10.90;82.50;;;;;;5030036;28;20220;-70
2021/03/17 11:13:43;;;;;;;2.58;2.22;;;10.50;83.50;;;;;;5030684;28;20198;-70
2021/03/17 11:16:28;;;;;;;1.95;1.80;;;10.00;83.10;;;;;;5031190;28;20629;-70
2021/03/17 11:18:56;;;;;;;2.75;2.38;;;9.50;86.40;;;;;;5029876;28;20206;-69
2021/03/17 11:21:26;;;;;;;3.03;2.72;;;9.20;87.50;;;;;;5030547;28;20248;-70
2021/03/17 11:23:55;;;;;;;3.05;2.65;;;9.00;87.40;;;;;;5034383;28;20194;-71
2021/03/17 11:26:24;;;;;;;3.38;2.38;;;8.90;88.60;;;;;;5051669;28;20232;-72
2021/03/17 11:28:52;;;;;;;2.53;2.08;;;8.60;89.50;;;;;;5053096;28;20189;-71
2021/03/17 11:31:39;;;;;;;3.00;2.70;;;8.40;89.70;;;;;;5064550;22;20215;-74
2021/03/17 11:34:07;;;;;;;2.85;2.65;;;8.20;90.50;;;;;;5062105;28;20558;-74
2021/03/17 11:36:34;;;;;;;2.65;2.17;;;8.20;90.30;;;;;;5070299;28;20227;-74
2021/03/17 11:39:05;;;;;;;2.97;2.35;;;8.10;90.30;;;;;;5070221;28;20211;-72
2021/03/17 11:41:32;;;;;;;2.90;2.50;;;8.10;90.60;;;;;;5059343;28;20229;-74
2021/03/17 11:43:58;;;;;;;3.33;2.53;;;7.90;91.50;;;;;;5049189;28;20209;-74
2021/03/17 11:46:25;;;;;;;3.60;2.40;;;7.70;91.20;;;;;;5049068;28;20205;-74
2021/03/17 11:48:52;;;;;;;5.28;3.03;;;7.60;91.80;;;;;;5049009;28;20201;-73
2021/03/17 11:51:20;;;;;;;3.10;2.80;;;7.50;92.60;;;;;;5049486;28;20232;-73
2021/03/17 11:53:46;;;;;;;3.90;3.50;;;7.20;93.40;;;;;;5049421;28;20204;-73
2021/03/17 11:56:14;;;;;;;4.30;3.42;;;7.10;94.40;;;;;;5048110;28;20228;-73
2021/03/17 11:58:40;;;;;;;7.25;3.70;;;7.00;95.10;;;;;;5049073;28;20577;-73
2021/03/17 12:01:06;;;;;;;4.90;3.25;;;6.90;96.50;;;;;;5050995;28;20229;-74
2021/03/17 12:03:33;;;;;;;3.65;2.83;;;6.60;96.60;;;;;;5052900;28;20216;-74
2021/03/17 12:05:59;;;;;;;8.10;4.72;;;6.60;97.20;;;;;;5052858;28;20229;-74
2021/03/17 12:08:26;;;;;;;6.43;5.15;;;6.50;98.80;;;;;;5052613;28;20213;-73
2021/03/17 12:10:53;;;;;;;7.43;5.85;;;6.30;99.90;;;;;;5052299;28;20229;-72
2021/03/17 12:13:20;;;;;;;9.13;5.93;;;6.20;99.90;;;;;;5052525;28;20227;-73
2021/03/17 12:15:47;;;;;;;8.25;5.32;;;6.10;99.90;;;;;;5052807;28;20201;-72
2021/03/17 12:18:14;;;;;;;9.02;5.65;;;6.00;99.90;;;;;;5052528;28;20201;-73
2021/03/17 12:20:41;;;;;;;7.20;5.35;;;5.90;99.90;;;;;;5052257;28;20217;-73
2021/03/17 12:23:08;;;;;;;5.93;4.55;;;5.80;99.90;;;;;;5044356;28;20209;-72
2021/03/17 12:25:34;;;;;;;9.23;6.43;;;5.70;99.90;;;;;;5059443;28;20754;-74
2021/03/17 12:28:01;;;;;;;7.88;5.75;;;5.60;99.90;;;;;;5051695;28;20732;-72
2021/03/17 12:30:28;;;;;;;8.30;5.82;;;5.40;99.90;;;;;;5049286;28;20205;-73
2021/03/17 12:32:55;;;;;;;6.45;5.68;;;5.30;99.90;;;;;;5048321;28;20205;-73
2021/03/17 12:35:24;;;;;;;10.85;5.53;;;5.20;99.90;;;;;;5051797;28;20552;-74
2021/03/17 12:37:52;;;;;;;6.45;5.00;;;5.00;99.90;;;;;;5052634;28;20259;-73
2021/03/17 12:40:20;;;;;;;6.65;5.13;;;5.10;99.90;;;;;;5051738;28;20201;-73
2021/03/17 12:42:47;;;;;;;5.70;4.97;;;5.10;99.90;;;;;;5054194;28;20205;-73
2021/03/17 12:45:15;;;;;;;7.72;5.68;;;5.10;99.90;;;;;;5053593;28;20204;-72
2021/03/17 12:47:43;;;;;;;7.10;5.13;;;5.20;99.90;;;;;;5053687;28;20227;-73
2021/03/17 12:50:13;;;;;;;6.50;4.88;;;5.30;99.90;;;;;;5052917;28;20649;-72
2021/03/17 12:52:40;;;;;;;6.55;4.90;;;5.20;99.90;;;;;;5053833;28;20274;-72
2021/03/17 12:55:08;;;;;;;6.20;5.45;;;5.10;99.90;;;;;;5053498;28;20690;-73
2021/03/17 12:57:35;;;;;;;7.60;5.57;;;5.10;99.90;;;;;;5053959;28;20255;-72
2021/03/17 13:00:01;;;;;;;7.35;5.68;;;5.30;99.90;;;;;;5052721;28;20202;-74
2021/03/17 13:02:28;;;;;;;5.82;4.85;;;5.40;99.90;;;;;;5053161;28;20220;-74
2021/03/17 13:04:55;;;;;;;6.95;5.40;;;5.40;99.90;;;;;;5054168;28;20291;-73
2021/03/17 13:07:21;;;;;;;6.57;5.47;;;5.50;99.90;;;;;;5053706;28;20642;-73
2021/03/17 13:09:48;;;;;;;8.65;5.72;;;5.50;99.90;;;;;;5053163;28;20203;-74